sensor_id;sensor_type;location;lat;lon;timestamp;pressure;altitude;pressure_sealevel;temperature;humidity
72677;BME280;60755;51.374;10.662;2023-09-19T00:00:30;96471.59;;;16.18;100.00
72677;BME280;60755;51.374;10.662;2023-09-19T00:03:00;96475.81;;;16.19;100.00
72677;BME280;60755;51.374;10.662;2023-09-19T00:05:29;96469.72;;;16.18;100.00
72677;BME280;60755;51.374;10.662;2023-09-19T00:07:57;96469.38;;;16.25;100.00
72677;BME280;60755;51.374;10.662;2023-09-19T00:10:25;96474.91;;;16.29;100.00
72677;BME280;60755;51.374;10.662;2023-09-19T00:12:52;96471.69;;;16.45;100.00
72677;BME280;60755;51.374;10.662;2023-09-19T00:15:21;96467.78;;;16.57;100.00
72677;BME280;60755;51.374;10.662;2023-09-19T00:17:48;96465.63;;;16.59;100.00
72677;BME280;60755;51.374;10.662;2023-09-19T00:20:19;96464.84;;;16.58;100.00
72677;BME280;60755;51.374;10.662;2023-09-19T00:22:49;96466.22;;;16.56;100.00
72677;BME280;60755;51.374;10.662;2023-09-19T00:25:17;96466.41;;;16.45;100.00
72677;BME280;60755;51.374;10.662;2023-09-19T00:27:45;96473.22;;;16.33;100.00
72677;BME280;60755;51.374;10.662;2023-09-19T00:30:13;96472.13;;;16.34;100.00
72677;BME280;60755;51.374;10.662;2023-09-19T00:32:45;96483.41;;;16.26;100.00
72677;BME280;60755;51.374;10.662;2023-09-19T00:35:13;96476.25;;;16.26;100.00
72677;BME280;60755;51.374;10.662;2023-09-19T00:37:42;96476.03;;;16.22;100.00
72677;BME280;60755;51.374;10.662;2023-09-19T00:40:10;96466.75;;;16.39;100.00
72677;BME280;60755;51.374;10.662;2023-09-19T00:42:38;96478.28;;;16.48;100.00
72677;BME280;60755;51.374;10.662;2023-09-19T00:45:07;96473.84;;;16.43;100.00
72677;BME280;60755;51.374;10.662;2023-09-19T00:47:36;96480.16;;;16.47;100.00
72677;BME280;60755;51.374;10.662;2023-09-19T00:50:05;96481.22;;;16.46;100.00
72677;BME280;60755;51.374;10.662;2023-09-19T00:52:34;96483.47;;;16.39;100.00
72677;BME280;60755;51.374;10.662;2023-09-19T00:55:07;96469.50;;;16.34;100.00
72677;BME280;60755;51.374;10.662;2023-09-19T00:57:34;96466.94;;;16.29;100.00
72677;BME280;60755;51.374;10.662;2023-09-19T01:00:05;96473.59;;;16.26;100.00
72677;BME280;60755;51.374;10.662;2023-09-19T01:02:34;96480.25;;;16.23;100.00
72677;BME280;60755;51.374;10.662;2023-09-19T01:05:02;96485.06;;;16.21;100.00
72677;BME280;60755;51.374;10.662;2023-09-19T01:07:31;96488.22;;;16.23;100.00
72677;BME280;60755;51.374;10.662;2023-09-19T01:10:00;96488.81;;;16.20;100.00
72677;BME280;60755;51.374;10.662;2023-09-19T01:12:33;96492.03;;;16.17;100.00
72677;BME280;60755;51.374;10.662;2023-09-19T01:15:08;96487.66;;;16.08;100.00
72677;BME280;60755;51.374;10.662;2023-09-19T01:17:45;96485.94;;;16.17;100.00
72677;BME280;60755;51.374;10.662;2023-09-19T01:20:25;96481.78;;;16.11;100.00
72677;BME280;60755;51.374;10.662;2023-09-19T01:23:02;96489.59;;;16.02;100.00
72677;BME280;60755;51.374;10.662;2023-09-19T01:28:52;96502.28;;;16.05;99.46
72677;BME280;60755;51.374;10.662;2023-09-19T01:31:23;96498.06;;;16.04;99.65
72677;BME280;60755;51.374;10.662;2023-09-19T01:33:56;96495.97;;;16.01;98.17
72677;BME280;60755;51.374;10.662;2023-09-19T01:36:26;96503.06;;;16.06;97.99
72677;BME280;60755;51.374;10.662;2023-09-19T01:38:53;96501.75;;;16.03;97.97
72677;BME280;60755;51.374;10.662;2023-09-19T01:41:26;96499.06;;;16.08;96.85
72677;BME280;60755;51.374;10.662;2023-09-19T01:43:56;96498.47;;;16.11;97.11
72677;BME280;60755;51.374;10.662;2023-09-19T01:46:30;96504.78;;;16.15;97.27
72677;BME280;60755;51.374;10.662;2023-09-19T01:49:10;96507.38;;;16.20;96.90
72677;BME280;60755;51.374;10.662;2023-09-19T01:51:46;96508.84;;;16.27;95.35
72677;BME280;60755;51.374;10.662;2023-09-19T01:54:25;96512.28;;;16.27;95.26
72677;BME280;60755;51.374;10.662;2023-09-19T01:56:57;96519.53;;;16.21;95.45
72677;BME280;60755;51.374;10.662;2023-09-19T01:59:34;96522.47;;;16.20;95.04
72677;BME280;60755;51.374;10.662;2023-09-19T02:02:04;96526.97;;;16.19;95.08
72677;BME280;60755;51.374;10.662;2023-09-19T02:04:34;96521.69;;;16.01;94.13
72677;BME280;60755;51.374;10.662;2023-09-19T02:07:02;96534.59;;;16.07;93.56
72677;BME280;60755;51.374;10.662;2023-09-19T02:09:31;96529.69;;;15.95;93.76
72677;BME280;60755;51.374;10.662;2023-09-19T02:12:00;96527.72;;;16.06;92.50
72677;BME280;60755;51.374;10.662;2023-09-19T02:14:30;96528.34;;;15.98;91.92
72677;BME280;60755;51.374;10.662;2023-09-19T02:16:57;96517.81;;;15.93;91.84
72677;BME280;60755;51.374;10.662;2023-09-19T02:19:27;96521.13;;;15.85;91.57
72677;BME280;60755;51.374;10.662;2023-09-19T02:21:55;96520.22;;;15.71;94.55
72677;BME280;60755;51.374;10.662;2023-09-19T02:24:22;96536.22;;;15.60;93.32
72677;BME280;60755;51.374;10.662;2023-09-19T02:26:52;96530.97;;;15.55;93.67
72677;BME280;60755;51.374;10.662;2023-09-19T02:29:20;96537.44;;;15.49;93.61
72677;BME280;60755;51.374;10.662;2023-09-19T02:31:47;96538.59;;;15.38;94.56
72677;BME280;60755;51.374;10.662;2023-09-19T02:34:15;96543.13;;;15.37;93.87
72677;BME280;60755;51.374;10.662;2023-09-19T02:36:44;96552.47;;;15.30;95.08
72677;BME280;60755;51.374;10.662;2023-09-19T02:39:12;96553.09;;;15.22;94.68
72677;BME280;60755;51.374;10.662;2023-09-19T02:41:39;96554.13;;;15.26;94.52
72677;BME280;60755;51.374;10.662;2023-09-19T02:44:07;96557.31;;;15.23;93.01
72677;BME280;60755;51.374;10.662;2023-09-19T02:46:34;96563.56;;;15.08;94.55
72677;BME280;60755;51.374;10.662;2023-09-19T02:49:03;96570.09;;;15.16;95.82
72677;BME280;60755;51.374;10.662;2023-09-19T02:51:32;96563.28;;;15.09;93.21
72677;BME280;60755;51.374;10.662;2023-09-19T02:54:01;96575.75;;;15.04;94.04
72677;BME280;60755;51.374;10.662;2023-09-19T02:56:29;96574.66;;;15.10;93.75
72677;BME280;60755;51.374;10.662;2023-09-19T02:58:58;96575.53;;;15.00;93.39
72677;BME280;60755;51.374;10.662;2023-09-19T03:01:26;96580.91;;;14.90;93.42
72677;BME280;60755;51.374;10.662;2023-09-19T03:03:54;96581.97;;;14.89;92.96
72677;BME280;60755;51.374;10.662;2023-09-19T03:06:22;96581.56;;;14.77;93.27
72677;BME280;60755;51.374;10.662;2023-09-19T03:08:49;96582.06;;;14.79;94.66
72677;BME280;60755;51.374;10.662;2023-09-19T03:11:21;96585.41;;;15.19;92.23
72677;BME280;60755;51.374;10.662;2023-09-19T03:13:52;96586.72;;;14.92;92.93
72677;BME280;60755;51.374;10.662;2023-09-19T03:16:20;96600.09;;;14.77;92.85
72677;BME280;60755;51.374;10.662;2023-09-19T03:18:50;96607.56;;;14.65;92.70
72677;BME280;60755;51.374;10.662;2023-09-19T03:21:17;96608.63;;;14.64;94.65
72677;BME280;60755;51.374;10.662;2023-09-19T03:24:07;96614.53;;;14.50;94.12
72677;BME280;60755;51.374;10.662;2023-09-19T03:26:35;96597.59;;;14.51;95.04
72677;BME280;60755;51.374;10.662;2023-09-19T03:29:04;96618.50;;;14.53;93.21
72677;BME280;60755;51.374;10.662;2023-09-19T03:31:34;96614.06;;;14.38;95.43
72677;BME280;60755;51.374;10.662;2023-09-19T03:34:04;96613.22;;;14.43;94.95
72677;BME280;60755;51.374;10.662;2023-09-19T03:36:31;96613.81;;;14.35;95.86
72677;BME280;60755;51.374;10.662;2023-09-19T03:39:00;96613.81;;;14.35;95.73
72677;BME280;60755;51.374;10.662;2023-09-19T03:41:30;96613.56;;;14.36;96.01
72677;BME280;60755;51.374;10.662;2023-09-19T03:44:00;96604.84;;;14.36;95.37
72677;BME280;60755;51.374;10.662;2023-09-19T03:46:30;96603.00;;;14.31;96.15
72677;BME280;60755;51.374;10.662;2023-09-19T03:48:58;96606.72;;;14.30;96.31
72677;BME280;60755;51.374;10.662;2023-09-19T03:51:25;96601.72;;;14.28;97.12
72677;BME280;60755;51.374;10.662;2023-09-19T03:53:52;96607.94;;;14.43;95.81
72677;BME280;60755;51.374;10.662;2023-09-19T03:56:20;96604.13;;;14.64;97.64
72677;BME280;60755;51.374;10.662;2023-09-19T03:58:46;96611.38;;;14.43;94.88
72677;BME280;60755;51.374;10.662;2023-09-19T04:01:15;96617.72;;;14.42;95.07
72677;BME280;60755;51.374;10.662;2023-09-19T04:03:44;96612.53;;;14.32;96.79
72677;BME280;60755;51.374;10.662;2023-09-19T04:06:14;96617.00;;;14.37;97.53
72677;BME280;60755;51.374;10.662;2023-09-19T04:08:41;96617.22;;;14.45;97.50
72677;BME280;60755;51.374;10.662;2023-09-19T04:11:09;96624.59;;;14.48;97.29
72677;BME280;60755;51.374;10.662;2023-09-19T04:13:36;96628.31;;;14.42;97.02
72677;BME280;60755;51.374;10.662;2023-09-19T04:16:03;96629.69;;;14.35;97.04
72677;BME280;60755;51.374;10.662;2023-09-19T04:18:33;96638.47;;;14.25;98.26
72677;BME280;60755;51.374;10.662;2023-09-19T04:21:04;96643.81;;;14.10;97.79
72677;BME280;60755;51.374;10.662;2023-09-19T04:23:32;96642.28;;;14.04;99.13
72677;BME280;60755;51.374;10.662;2023-09-19T04:25:59;96651.25;;;14.03;100.00
72677;BME280;60755;51.374;10.662;2023-09-19T04:28:26;96644.88;;;14.09;98.73
72677;BME280;60755;51.374;10.662;2023-09-19T04:30:53;96642.75;;;14.11;100.00
72677;BME280;60755;51.374;10.662;2023-09-19T04:33:21;96648.66;;;13.92;99.20
72677;BME280;60755;51.374;10.662;2023-09-19T04:35:53;96651.84;;;13.84;100.00
72677;BME280;60755;51.374;10.662;2023-09-19T04:38:20;96657.16;;;13.74;99.73
72677;BME280;60755;51.374;10.662;2023-09-19T04:40:47;96668.28;;;13.66;99.36
72677;BME280;60755;51.374;10.662;2023-09-19T04:43:14;96666.44;;;13.71;100.00
72677;BME280;60755;51.374;10.662;2023-09-19T04:45:42;96670.38;;;13.74;99.07
72677;BME280;60755;51.374;10.662;2023-09-19T04:48:09;96669.56;;;13.84;98.29
72677;BME280;60755;51.374;10.662;2023-09-19T04:50:36;96681.97;;;13.78;97.39
72677;BME280;60755;51.374;10.662;2023-09-19T04:53:05;96683.00;;;13.92;96.22
72677;BME280;60755;51.374;10.662;2023-09-19T04:55:32;96693.56;;;13.87;98.53
72677;BME280;60755;51.374;10.662;2023-09-19T04:57:59;96686.19;;;13.84;98.84
72677;BME280;60755;51.374;10.662;2023-09-19T05:00:25;96691.50;;;13.74;97.11
72677;BME280;60755;51.374;10.662;2023-09-19T05:02:55;96687.56;;;13.71;99.39
72677;BME280;60755;51.374;10.662;2023-09-19T05:05:23;96685.66;;;13.77;96.57
72677;BME280;60755;51.374;10.662;2023-09-19T05:07:51;96685.66;;;13.82;95.09
72677;BME280;60755;51.374;10.662;2023-09-19T05:10:21;96679.09;;;13.80;96.96
72677;BME280;60755;51.374;10.662;2023-09-19T05:12:48;96692.78;;;13.92;97.64
72677;BME280;60755;51.374;10.662;2023-09-19T05:15:17;96683.78;;;13.93;95.72
72677;BME280;60755;51.374;10.662;2023-09-19T05:17:47;96683.75;;;14.03;95.25
72677;BME280;60755;51.374;10.662;2023-09-19T05:20:14;96688.44;;;14.16;94.36
72677;BME280;60755;51.374;10.662;2023-09-19T05:22:50;96675.97;;;14.32;93.00
72677;BME280;60755;51.374;10.662;2023-09-19T05:25:17;96680.06;;;14.59;92.92
72677;BME280;60755;51.374;10.662;2023-09-19T05:27:47;96683.88;;;14.87;90.96
72677;BME280;60755;51.374;10.662;2023-09-19T05:30:14;96690.72;;;15.22;88.06
72677;BME280;60755;51.374;10.662;2023-09-19T05:32:41;96692.03;;;15.53;87.46
72677;BME280;60755;51.374;10.662;2023-09-19T05:35:09;96699.44;;;15.56;86.71
72677;BME280;60755;51.374;10.662;2023-09-19T05:37:38;96696.13;;;15.75;87.42
72677;BME280;60755;51.374;10.662;2023-09-19T05:40:06;96696.00;;;15.85;84.26
72677;BME280;60755;51.374;10.662;2023-09-19T05:42:36;96695.38;;;15.93;84.38
72677;BME280;60755;51.374;10.662;2023-09-19T05:45:06;96689.78;;;15.71;83.39
72677;BME280;60755;51.374;10.662;2023-09-19T05:47:33;96692.28;;;15.57;86.84
72677;BME280;60755;51.374;10.662;2023-09-19T05:50:00;96691.03;;;15.49;85.92
72677;BME280;60755;51.374;10.662;2023-09-19T05:52:28;96689.53;;;15.38;87.81
72677;BME280;60755;51.374;10.662;2023-09-19T05:54:55;96685.41;;;15.27;85.39
72677;BME280;60755;51.374;10.662;2023-09-19T05:57:23;96684.91;;;15.25;86.29
72677;BME280;60755;51.374;10.662;2023-09-19T05:59:50;96693.66;;;15.20;86.49
72677;BME280;60755;51.374;10.662;2023-09-19T06:02:18;96689.19;;;15.16;88.57
72677;BME280;60755;51.374;10.662;2023-09-19T06:04:45;96698.53;;;15.08;88.88
72677;BME280;60755;51.374;10.662;2023-09-19T06:07:12;96695.31;;;15.16;88.37
72677;BME280;60755;51.374;10.662;2023-09-19T06:09:42;96705.47;;;15.33;87.94
72677;BME280;60755;51.374;10.662;2023-09-19T06:12:09;96708.47;;;15.21;86.25
72677;BME280;60755;51.374;10.662;2023-09-19T06:14:39;96717.94;;;15.32;86.10
72677;BME280;60755;51.374;10.662;2023-09-19T06:17:06;96709.25;;;15.22;86.93
72677;BME280;60755;51.374;10.662;2023-09-19T06:19:35;96722.47;;;15.27;86.42
72677;BME280;60755;51.374;10.662;2023-09-19T06:22:02;96727.75;;;15.27;86.64
72677;BME280;60755;51.374;10.662;2023-09-19T06:24:29;96726.00;;;15.46;86.15
72677;BME280;60755;51.374;10.662;2023-09-19T06:26:56;96725.06;;;15.66;85.99
72677;BME280;60755;51.374;10.662;2023-09-19T06:29:23;96729.38;;;15.86;84.69
72677;BME280;60755;51.374;10.662;2023-09-19T06:31:50;96731.66;;;15.98;84.12
72677;BME280;60755;51.374;10.662;2023-09-19T06:34:17;96742.63;;;16.10;84.18
72677;BME280;60755;51.374;10.662;2023-09-19T06:36:45;96741.94;;;16.04;84.80
72677;BME280;60755;51.374;10.662;2023-09-19T06:39:12;96744.66;;;16.18;83.81
72677;BME280;60755;51.374;10.662;2023-09-19T06:41:39;96741.84;;;16.09;81.43
72677;BME280;60755;51.374;10.662;2023-09-19T06:44:10;96738.53;;;15.99;82.15
72677;BME280;60755;51.374;10.662;2023-09-19T06:46:37;96746.97;;;16.25;82.51
72677;BME280;60755;51.374;10.662;2023-09-19T06:49:04;96748.81;;;16.05;81.52
72677;BME280;60755;51.374;10.662;2023-09-19T06:51:32;96755.22;;;15.99;80.75
72677;BME280;60755;51.374;10.662;2023-09-19T06:54:02;96767.69;;;15.99;80.82
72677;BME280;60755;51.374;10.662;2023-09-19T06:56:30;96778.94;;;16.14;81.18
72677;BME280;60755;51.374;10.662;2023-09-19T06:58:57;96780.47;;;16.20;82.24
72677;BME280;60755;51.374;10.662;2023-09-19T07:01:24;96791.88;;;16.16;81.32
72677;BME280;60755;51.374;10.662;2023-09-19T07:03:52;96799.81;;;16.21;80.36
72677;BME280;60755;51.374;10.662;2023-09-19T07:06:19;96794.75;;;16.19;77.52
72677;BME280;60755;51.374;10.662;2023-09-19T07:08:45;96803.09;;;16.37;79.16
72677;BME280;60755;51.374;10.662;2023-09-19T07:11:14;96804.81;;;16.46;77.38
72677;BME280;60755;51.374;10.662;2023-09-19T07:13:41;96806.22;;;16.39;76.07
72677;BME280;60755;51.374;10.662;2023-09-19T07:16:09;96819.88;;;16.51;77.72
72677;BME280;60755;51.374;10.662;2023-09-19T07:18:52;96811.25;;;16.64;78.08
72677;BME280;60755;51.374;10.662;2023-09-19T07:21:20;96814.41;;;16.66;74.44
72677;BME280;60755;51.374;10.662;2023-09-19T07:23:47;96818.19;;;16.60;74.30
72677;BME280;60755;51.374;10.662;2023-09-19T07:26:16;96816.53;;;16.69;71.72
72677;BME280;60755;51.374;10.662;2023-09-19T07:28:43;96828.47;;;16.91;74.59
72677;BME280;60755;51.374;10.662;2023-09-19T07:31:10;96823.44;;;16.89;70.92
72677;BME280;60755;51.374;10.662;2023-09-19T07:33:40;96826.63;;;17.10;69.78
72677;BME280;60755;51.374;10.662;2023-09-19T07:36:10;96821.00;;;17.30;74.13
72677;BME280;60755;51.374;10.662;2023-09-19T07:38:39;96821.59;;;17.27;69.18
72677;BME280;60755;51.374;10.662;2023-09-19T07:41:06;96828.13;;;17.35;70.85
72677;BME280;60755;51.374;10.662;2023-09-19T07:43:36;96823.53;;;17.03;69.03
72677;BME280;60755;51.374;10.662;2023-09-19T07:46:05;96822.47;;;17.42;66.43
72677;BME280;60755;51.374;10.662;2023-09-19T07:48:35;96831.00;;;17.39;68.05
72677;BME280;60755;51.374;10.662;2023-09-19T07:51:03;96827.97;;;17.83;67.19
72677;BME280;60755;51.374;10.662;2023-09-19T07:53:30;96836.47;;;17.28;67.65
72677;BME280;60755;51.374;10.662;2023-09-19T07:56:03;96836.41;;;17.33;67.04
72677;BME280;60755;51.374;10.662;2023-09-19T07:58:30;96836.16;;;17.68;68.68
72677;BME280;60755;51.374;10.662;2023-09-19T08:01:04;96831.97;;;17.61;67.54
72677;BME280;60755;51.374;10.662;2023-09-19T08:03:31;96834.81;;;17.32;67.25
72677;BME280;60755;51.374;10.662;2023-09-19T08:05:58;96838.84;;;17.49;67.63
72677;BME280;60755;51.374;10.662;2023-09-19T08:08:25;96846.47;;;17.69;68.53
72677;BME280;60755;51.374;10.662;2023-09-19T08:10:55;96843.69;;;17.79;63.92
72677;BME280;60755;51.374;10.662;2023-09-19T08:13:23;96856.72;;;17.95;65.57
72677;BME280;60755;51.374;10.662;2023-09-19T08:15:52;96854.91;;;18.09;63.53
72677;BME280;60755;51.374;10.662;2023-09-19T08:18:21;96866.44;;;18.18;65.83
72677;BME280;60755;51.374;10.662;2023-09-19T08:20:52;96854.19;;;18.03;63.14
72677;BME280;60755;51.374;10.662;2023-09-19T08:23:19;96873.41;;;18.47;65.72
72677;BME280;60755;51.374;10.662;2023-09-19T08:25:47;96868.25;;;18.36;63.47
72677;BME280;60755;51.374;10.662;2023-09-19T08:28:14;96878.22;;;18.31;63.70
72677;BME280;60755;51.374;10.662;2023-09-19T08:30:45;96875.38;;;18.55;62.82
72677;BME280;60755;51.374;10.662;2023-09-19T08:33:12;96881.19;;;18.57;62.27
72677;BME280;60755;51.374;10.662;2023-09-19T08:35:42;96881.47;;;18.41;63.54
72677;BME280;60755;51.374;10.662;2023-09-19T08:38:11;96881.59;;;18.64;62.71
72677;BME280;60755;51.374;10.662;2023-09-19T08:40:39;96879.94;;;18.95;62.66
72677;BME280;60755;51.374;10.662;2023-09-19T08:43:08;96880.53;;;19.06;62.48
72677;BME280;60755;51.374;10.662;2023-09-19T08:45:35;96887.72;;;19.06;59.78
72677;BME280;60755;51.374;10.662;2023-09-19T08:48:11;96883.94;;;18.52;61.37
72677;BME280;60755;51.374;10.662;2023-09-19T08:50:49;96892.56;;;18.90;60.03
72677;BME280;60755;51.374;10.662;2023-09-19T08:53:21;96888.06;;;18.44;60.04
72677;BME280;60755;51.374;10.662;2023-09-19T08:55:53;96888.69;;;18.55;60.73
72677;BME280;60755;51.374;10.662;2023-09-19T08:58:25;96898.28;;;18.83;60.86
72677;BME280;60755;51.374;10.662;2023-09-19T09:00:56;96895.53;;;18.88;63.26
72677;BME280;60755;51.374;10.662;2023-09-19T09:03:25;96898.13;;;18.93;63.43
72677;BME280;60755;51.374;10.662;2023-09-19T09:05:53;96903.41;;;19.07;61.21
72677;BME280;60755;51.374;10.662;2023-09-19T09:08:22;96896.69;;;18.55;58.14
72677;BME280;60755;51.374;10.662;2023-09-19T09:10:49;96903.88;;;18.54;60.07
72677;BME280;60755;51.374;10.662;2023-09-19T09:13:16;96900.94;;;17.91;62.19
72677;BME280;60755;51.374;10.662;2023-09-19T09:15:44;96897.25;;;18.52;59.67
72677;BME280;60755;51.374;10.662;2023-09-19T09:18:11;96899.41;;;18.50;60.88
72677;BME280;60755;51.374;10.662;2023-09-19T09:20:38;96902.94;;;18.31;60.36
72677;BME280;60755;51.374;10.662;2023-09-19T09:23:08;96897.50;;;18.83;63.03
72677;BME280;60755;51.374;10.662;2023-09-19T09:25:50;96891.41;;;18.96;62.01
72677;BME280;60755;51.374;10.662;2023-09-19T09:28:21;96891.97;;;19.20;59.87
72677;BME280;60755;51.374;10.662;2023-09-19T09:30:48;96893.16;;;18.73;62.55
72677;BME280;60755;51.374;10.662;2023-09-19T09:33:16;96889.13;;;18.76;59.31
72677;BME280;60755;51.374;10.662;2023-09-19T09:35:51;96884.09;;;19.02;61.10
72677;BME280;60755;51.374;10.662;2023-09-19T09:38:21;96883.97;;;19.20;61.48
72677;BME280;60755;51.374;10.662;2023-09-19T09:40:53;96883.00;;;19.03;59.50
72677;BME280;60755;51.374;10.662;2023-09-19T09:43:27;96890.81;;;18.85;62.87
72677;BME280;60755;51.374;10.662;2023-09-19T09:46:10;96891.59;;;18.86;63.06
72677;BME280;60755;51.374;10.662;2023-09-19T09:48:56;96890.22;;;18.88;62.44
72677;BME280;60755;51.374;10.662;2023-09-19T09:51:38;96886.84;;;18.96;59.48
72677;BME280;60755;51.374;10.662;2023-09-19T09:54:14;96887.94;;;18.68;59.08
72677;BME280;60755;51.374;10.662;2023-09-19T09:56:52;96879.84;;;19.00;62.87
72677;BME280;60755;51.374;10.662;2023-09-19T09:59:20;96886.72;;;19.29;61.74
72677;BME280;60755;51.374;10.662;2023-09-19T10:01:49;96881.69;;;19.14;60.80
72677;BME280;60755;51.374;10.662;2023-09-19T10:04:27;96888.44;;;19.47;62.67
72677;BME280;60755;51.374;10.662;2023-09-19T10:06:56;96889.59;;;19.69;60.03
72677;BME280;60755;51.374;10.662;2023-09-19T10:09:25;96888.19;;;19.71;62.94
72677;BME280;60755;51.374;10.662;2023-09-19T10:12:03;96895.25;;;19.53;58.55
72677;BME280;60755;51.374;10.662;2023-09-19T10:14:37;96879.88;;;19.37;57.29
72677;BME280;60755;51.374;10.662;2023-09-19T10:17:05;96896.72;;;19.10;59.30
72677;BME280;60755;51.374;10.662;2023-09-19T10:19:37;96883.81;;;19.39;59.42
72677;BME280;60755;51.374;10.662;2023-09-19T10:22:05;96890.22;;;18.88;60.20
72677;BME280;60755;51.374;10.662;2023-09-19T10:24:36;96889.81;;;18.95;59.48
72677;BME280;60755;51.374;10.662;2023-09-19T10:27:06;96885.69;;;18.89;60.01
72677;BME280;60755;51.374;10.662;2023-09-19T10:29:36;96897.53;;;19.46;60.02
72677;BME280;60755;51.374;10.662;2023-09-19T10:32:06;96893.53;;;19.35;57.76
72677;BME280;60755;51.374;10.662;2023-09-19T10:34:35;96899.47;;;19.54;57.45
72677;BME280;60755;51.374;10.662;2023-09-19T10:37:04;96886.88;;;19.46;59.54
72677;BME280;60755;51.374;10.662;2023-09-19T10:39:36;96889.22;;;19.62;59.84
72677;BME280;60755;51.374;10.662;2023-09-19T10:42:07;96888.25;;;19.44;60.99
72677;BME280;60755;51.374;10.662;2023-09-19T10:44:38;96886.94;;;19.69;59.41
72677;BME280;60755;51.374;10.662;2023-09-19T10:47:09;96887.25;;;19.90;58.83
72677;BME280;60755;51.374;10.662;2023-09-19T10:49:43;96896.66;;;20.09;57.52
72677;BME280;60755;51.374;10.662;2023-09-19T10:52:12;96886.47;;;19.67;55.95
72677;BME280;60755;51.374;10.662;2023-09-19T10:54:48;96891.69;;;19.94;54.19
72677;BME280;60755;51.374;10.662;2023-09-19T10:57:19;96886.13;;;20.13;55.05
72677;BME280;60755;51.374;10.662;2023-09-19T11:00:01;96886.34;;;20.17;55.73
72677;BME280;60755;51.374;10.662;2023-09-19T11:03:17;96888.72;;;19.73;55.69
72677;BME280;60755;51.374;10.662;2023-09-19T11:06:01;96887.81;;;20.00;54.82
72677;BME280;60755;51.374;10.662;2023-09-19T11:08:31;96892.69;;;19.62;55.79
72677;BME280;60755;51.374;10.662;2023-09-19T11:11:43;96891.31;;;20.09;55.89
72677;BME280;60755;51.374;10.662;2023-09-19T11:14:30;96885.53;;;20.16;53.98
72677;BME280;60755;51.374;10.662;2023-09-19T11:20:21;96890.94;;;19.80;58.67
72677;BME280;60755;51.374;10.662;2023-09-19T11:23:20;96878.34;;;19.94;54.34
72677;BME280;60755;51.374;10.662;2023-09-19T11:25:56;96873.84;;;20.03;54.99
72677;BME280;60755;51.374;10.662;2023-09-19T11:28:34;96880.03;;;19.90;55.95
72677;BME280;60755;51.374;10.662;2023-09-19T11:34:44;96866.03;;;20.07;54.99
72677;BME280;60755;51.374;10.662;2023-09-19T11:40:37;96869.69;;;20.20;54.89
72677;BME280;60755;51.374;10.662;2023-09-19T11:43:30;96856.94;;;20.39;55.36
72677;BME280;60755;51.374;10.662;2023-09-19T11:46:07;96857.03;;;20.56;54.70
72677;BME280;60755;51.374;10.662;2023-09-19T11:48:35;96863.44;;;20.47;53.58
72677;BME280;60755;51.374;10.662;2023-09-19T11:51:17;96863.34;;;20.69;50.89
72677;BME280;60755;51.374;10.662;2023-09-19T11:53:52;96867.88;;;20.60;52.06
72677;BME280;60755;51.374;10.662;2023-09-19T11:56:21;96863.19;;;20.34;51.69
72677;BME280;60755;51.374;10.662;2023-09-19T11:58:50;96862.88;;;20.36;54.84
72677;BME280;60755;51.374;10.662;2023-09-19T12:01:24;96864.94;;;19.86;53.65
72677;BME280;60755;51.374;10.662;2023-09-19T12:03:56;96870.69;;;20.24;53.97
72677;BME280;60755;51.374;10.662;2023-09-19T12:06:24;96867.78;;;20.74;54.55
72677;BME280;60755;51.374;10.662;2023-09-19T12:08:52;96883.00;;;20.64;55.78
72677;BME280;60755;51.374;10.662;2023-09-19T12:11:22;96867.47;;;20.75;52.13
72677;BME280;60755;51.374;10.662;2023-09-19T12:13:50;96867.75;;;21.22;52.07
72677;BME280;60755;51.374;10.662;2023-09-19T12:16:20;96878.91;;;20.67;53.06
72677;BME280;60755;51.374;10.662;2023-09-19T12:18:50;96873.81;;;20.88;52.68
72677;BME280;60755;51.374;10.662;2023-09-19T12:21:28;96875.50;;;20.84;51.04
72677;BME280;60755;51.374;10.662;2023-09-19T12:24:04;96877.31;;;20.35;54.23
72677;BME280;60755;51.374;10.662;2023-09-19T12:26:39;96870.69;;;20.24;54.31
72677;BME280;60755;51.374;10.662;2023-09-19T12:29:12;96878.78;;;20.41;52.97
72677;BME280;60755;51.374;10.662;2023-09-19T12:31:51;96871.09;;;20.71;50.69
72677;BME280;60755;51.374;10.662;2023-09-19T12:34:26;96875.38;;;20.49;53.38
72677;BME280;60755;51.374;10.662;2023-09-19T12:37:04;96878.53;;;20.29;53.85
72677;BME280;60755;51.374;10.662;2023-09-19T12:39:37;96887.56;;;20.42;52.04
72677;BME280;60755;51.374;10.662;2023-09-19T12:42:08;96880.59;;;20.54;52.69
72677;BME280;60755;51.374;10.662;2023-09-19T12:44:37;96879.44;;;20.78;53.48
72677;BME280;60755;51.374;10.662;2023-09-19T12:47:15;96878.94;;;20.14;53.33
72677;BME280;60755;51.374;10.662;2023-09-19T12:50:10;96872.97;;;20.39;55.40
72677;BME280;60755;51.374;10.662;2023-09-19T12:52:41;96875.56;;;19.99;54.28
72677;BME280;60755;51.374;10.662;2023-09-19T12:55:21;96870.69;;;20.24;54.04
72677;BME280;60755;51.374;10.662;2023-09-19T12:58:08;96868.34;;;20.00;54.83
72677;BME280;60755;51.374;10.662;2023-09-19T13:00:40;96866.09;;;19.93;55.68
72677;BME280;60755;51.374;10.662;2023-09-19T13:03:16;96862.94;;;19.91;54.46
72677;BME280;60755;51.374;10.662;2023-09-19T13:05:54;96847.56;;;19.52;54.98
72677;BME280;60755;51.374;10.662;2023-09-19T13:08:23;96856.44;;;19.61;55.25
72677;BME280;60755;51.374;10.662;2023-09-19T13:11:08;96854.56;;;19.62;55.39
72677;BME280;60755;51.374;10.662;2023-09-19T13:13:39;96855.00;;;19.77;56.27
72677;BME280;60755;51.374;10.662;2023-09-19T13:16:07;96857.34;;;19.56;55.89
72677;BME280;60755;51.374;10.662;2023-09-19T13:18:45;96855.28;;;19.40;55.46